Time;durP1;ratioP1;P1;durP2;ratioP2;P2;SDS_P1;SDS_P2;PMS_P1;PMS_P2;Temp;Humidity;BMP_temperature;BMP_pressure;BME280_temperature;BME280_humidity;BME280_pressure;Samples;Min_cycle;Max_cycle;Signal;HPM_P1;HPM_P2
2023/04/05 00:00:10;;;;;;;4.43;1.63;;;;;;;-0.56;45.83;102598.94;4993894;28;20034;-69
2023/04/05 00:02:39;;;;;;;7.13;2.40;;;;;;;-0.63;45.99;102599.56;4952742;28;20046;-71
2023/04/05 00:05:06;;;;;;;3.15;1.52;;;;;;;-0.69;45.88;102599.34;4976801;28;20042;-71
2023/04/05 00:07:34;;;;;;;3.22;1.23;;;;;;;-0.70;45.99;102597.59;4977614;28;20125;-70
2023/04/05 00:10:00;;;;;;;5.97;1.50;;;;;;;-0.60;45.84;102604.78;4980412;28;20038;-68
2023/04/05 00:12:25;;;;;;;4.75;1.60;;;;;;;-0.72;46.02;102603.50;4975260;28;20096;-68
2023/04/05 00:14:51;;;;;;;3.63;1.35;;;;;;;-0.81;46.07;102592.09;4993380;28;20069;-68
2023/04/05 00:17:16;;;;;;;9.50;1.63;;;;;;;-0.90;46.26;102593.47;4969637;28;20054;-68
2023/04/05 00:19:43;;;;;;;7.20;1.75;;;;;;;-0.85;46.34;102585.09;4978733;28;20033;-68
2023/04/05 00:22:09;;;;;;;2.60;1.42;;;;;;;-0.83;46.42;102591.16;4977103;28;20042;-74
2023/04/05 00:24:37;;;;;;;5.22;1.42;;;;;;;-0.74;45.89;102584.59;4981366;28;20549;-75
2023/04/05 00:27:04;;;;;;;5.00;1.27;;;;;;;-0.83;46.08;102583.47;4975424;28;20268;-74
2023/04/05 00:29:30;;;;;;;4.00;1.05;;;;;;;-0.85;46.50;102582.53;4991474;28;20393;-76
2023/04/05 00:31:55;;;;;;;3.30;0.98;;;;;;;-0.77;46.40;102586.25;4977837;28;20864;-73
2023/04/05 00:34:21;;;;;;;3.78;1.17;;;;;;;-0.82;46.22;102582.63;4977382;28;20035;-74
2023/04/05 00:36:46;;;;;;;2.05;1.50;;;;;;;-0.79;46.13;102592.16;4985873;28;20042;-72
2023/04/05 00:39:12;;;;;;;4.82;1.75;;;;;;;-0.93;46.38;102583.94;4993788;28;20041;-74
2023/04/05 00:41:38;;;;;;;3.20;1.10;;;;;;;-1.04;46.35;102580.13;4977959;28;20647;-75
2023/04/05 00:44:06;;;;;;;4.63;1.80;;;;;;;-1.03;46.61;102582.75;4977123;28;20042;-72
2023/04/05 00:46:36;;;;;;;2.45;1.35;;;;;;;-1.03;46.65;102576.75;4980430;28;20033;-73
2023/04/05 00:49:03;;;;;;;4.30;1.20;;;;;;;-1.02;46.85;102578.47;4972749;28;20125;-75
2023/04/05 00:51:30;;;;;;;3.42;1.50;;;;;;;-1.13;47.21;102575.50;4973056;28;21777;-75
2023/04/05 00:53:55;;;;;;;2.90;1.17;;;;;;;-1.10;47.13;102577.31;4968273;28;20076;-74
2023/04/05 00:56:23;;;;;;;6.57;1.77;;;;;;;-1.14;47.25;102573.75;4978279;28;20356;-77
2023/04/05 00:58:50;;;;;;;2.92;1.67;;;;;;;-1.07;47.05;102567.16;4973080;28;20200;-76
2023/04/05 01:01:19;;;;;;;3.40;1.50;;;;;;;-1.10;47.08;102575.63;4993759;28;20038;-75
2023/04/05 01:04:01;;;;;;;4.07;1.52;;;;;;;-1.09;47.20;102576.50;4978595;28;20109;-73
2023/04/05 01:06:39;;;;;;;4.32;1.50;;;;;;;-1.07;47.08;102575.72;4993091;28;20033;-73
2023/04/05 01:09:13;;;;;;;4.47;1.80;;;;;;;-1.12;47.17;102573.84;4971784;28;20050;-74
2023/04/05 01:11:41;;;;;;;3.63;1.83;;;;;;;-1.16;47.29;102572.84;4977741;28;20205;-73
2023/04/05 01:14:07;;;;;;;2.78;1.10;;;;;;;-1.10;47.10;102575.63;4977094;28;20771;-74
2023/04/05 01:16:32;;;;;;;3.85;1.40;;;;;;;-1.10;47.19;102578.19;4976185;28;20092;-72
2023/04/05 01:18:58;;;;;;;5.32;1.75;;;;;;;-1.24;47.17;102576.81;4974052;28;20061;-72
2023/04/05 01:21:39;;;;;;;7.63;1.90;;;;;;;-1.21;47.28;102579.50;4976494;28;20077;-71
2023/04/05 01:24:29;;;;;;;5.35;1.98;;;;;;;-1.20;47.29;102570.97;4991943;28;20054;-73
2023/04/05 01:27:23;;;;;;;2.85;1.17;;;;;;;-1.19;47.08;102565.03;4971107;28;20026;-75
2023/04/05 01:29:54;;;;;;;3.80;1.13;;;;;;;-1.26;47.14;102571.63;4976817;28;20132;-75
2023/04/05 01:32:45;;;;;;;5.05;1.50;;;;;;;-1.26;47.28;102568.22;4957230;28;20565;-74
2023/04/05 01:35:23;;;;;;;7.80;2.88;;;;;;;-1.28;47.22;102569.84;4993818;28;20835;-76
2023/04/05 01:37:58;;;;;;;9.20;2.50;;;;;;;-1.25;47.10;102569.94;4984526;28;20046;-79
2023/04/05 01:40:24;;;;;;;8.18;2.38;;;;;;;-1.32;47.22;102562.84;4988141;28;20030;-77
2023/04/05 01:42:50;;;;;;;5.47;2.13;;;;;;;-1.41;47.35;102564.25;5002818;28;20332;-78
2023/04/05 01:45:15;;;;;;;8.40;1.98;;;;;;;-1.28;47.08;102560.44;5006874;28;20041;-78
2023/04/05 01:47:41;;;;;;;5.35;2.00;;;;;;;-1.23;47.28;102558.03;5004578;28;20990;-75
2023/04/05 01:50:07;;;;;;;5.57;1.90;;;;;;;-1.32;47.21;102552.59;4964070;28;20582;-74
2023/04/05 01:52:33;;;;;;;4.28;2.05;;;;;;;-1.28;47.20;102549.31;4981020;28;20057;-75
2023/04/05 01:54:58;;;;;;;5.05;1.58;;;;;;;-1.32;47.41;102557.72;4997407;28;20479;-74
2023/04/05 01:57:24;;;;;;;4.90;1.52;;;;;;;-1.26;47.24;102560.50;4983586;28;20113;-76
2023/04/05 01:59:49;;;;;;;4.03;1.33;;;;;;;-1.26;47.24;102548.56;4979147;28;20091;-76
2023/04/05 02:02:15;;;;;;;3.10;1.80;;;;;;;-1.32;47.36;102544.88;4977674;28;20065;-74
2023/04/05 02:04:41;;;;;;;4.60;1.60;;;;;;;-1.35;47.28;102537.06;4982141;28;20609;-76
2023/04/05 02:07:08;;;;;;;4.05;1.48;;;;;;;-1.40;47.30;102545.50;4983087;28;20121;-75
2023/04/05 02:09:33;;;;;;;4.15;1.42;;;;;;;-1.42;47.45;102547.13;4993367;28;21492;-74
2023/04/05 02:12:00;;;;;;;5.85;1.52;;;;;;;-1.40;47.87;102540.38;4954364;28;21039;-75
2023/04/05 02:14:25;;;;;;;5.95;1.80;;;;;;;-1.35;48.01;102542.19;4979567;28;20055;-73
2023/04/05 02:16:54;;;;;;;5.35;2.30;;;;;;;-1.25;47.76;102536.59;4978499;28;20033;-75
2023/04/05 02:19:21;;;;;;;5.60;2.10;;;;;;;-1.28;47.45;102539.91;4978693;28;20030;-74
2023/04/05 02:21:52;;;;;;;3.95;1.90;;;;;;;-1.38;47.68;102537.84;4988489;28;20045;-75
2023/04/05 02:24:18;;;;;;;5.22;2.03;;;;;;;-1.47;47.82;102533.25;4978031;28;20034;-74
2023/04/05 02:26:43;;;;;;;3.72;2.00;;;;;;;-1.47;47.67;102533.25;4971375;28;20052;-75
2023/04/05 02:29:09;;;;;;;3.45;1.50;;;;;;;-1.47;47.74;102529.81;4978146;28;20054;-75
2023/04/05 02:31:35;;;;;;;5.57;1.98;;;;;;;-1.52;48.02;102529.63;4980508;28;20259;-75
2023/04/05 02:34:01;;;;;;;7.95;2.13;;;;;;;-1.54;47.95;102536.41;4978132;28;20042;-75
2023/04/05 02:36:29;;;;;;;4.05;1.60;;;;;;;-1.52;47.78;102539.91;4974943;28;20033;-75
2023/04/05 02:38:55;;;;;;;6.00;2.47;;;;;;;-1.55;47.75;102538.91;4981260;28;20042;-73
2023/04/05 02:41:22;;;;;;;5.07;1.30;;;;;;;-1.60;48.05;102544.75;4994993;28;20038;-74
2023/04/05 02:43:49;;;;;;;4.30;1.50;;;;;;;-1.61;48.00;102535.28;4982526;28;20657;-76
2023/04/05 02:46:14;;;;;;;3.50;1.65;;;;;;;-1.60;47.80;102541.28;4977564;28;20034;-74
2023/04/05 02:48:42;;;;;;;6.05;1.92;;;;;;;-1.59;47.85;102535.38;4977842;28;20068;-75
2023/04/05 02:51:09;;;;;;;4.15;2.40;;;;;;;-1.59;48.09;102533.66;4979639;28;20022;-74
2023/04/05 02:53:34;;;;;;;2.95;1.65;;;;;;;-1.70;47.80;102534.09;4989489;28;20467;-73
2023/04/05 02:56:04;;;;;;;3.88;2.08;;;;;;;-1.61;47.79;102534.44;4991988;28;20045;-73
2023/04/05 02:58:32;;;;;;;5.15;1.80;;;;;;;-1.72;48.13;102525.47;4964068;28;20044;-77
2023/04/05 03:01:00;;;;;;;7.18;1.58;;;;;;;-1.68;48.40;102523.06;5000139;28;20041;-77
2023/04/05 03:03:30;;;;;;;4.05;2.20;;;;;;;-1.71;47.68;102517.84;4983480;28;20136;-72
2023/04/05 03:06:06;;;;;;;4.50;1.92;;;;;;;-1.78;48.25;102525.22;4977955;28;20030;-72
2023/04/05 03:08:37;;;;;;;5.43;2.17;;;;;;;-1.77;48.46;102516.75;4969870;28;20326;-73
2023/04/05 03:11:06;;;;;;;5.03;2.08;;;;;;;-1.75;48.39;102517.69;4993619;28;21448;-73
2023/04/05 03:13:33;;;;;;;5.88;2.50;;;;;;;-1.69;48.27;102516.19;4994167;28;20068;-73
2023/04/05 03:16:01;;;;;;;5.43;2.22;;;;;;;-1.74;48.09;102512.59;4958274;28;20026;-71
2023/04/05 03:18:31;;;;;;;4.28;1.98;;;;;;;-1.80;48.73;102522.59;4978073;28;20046;-72
2023/04/05 03:21:03;;;;;;;5.10;2.38;;;;;;;-1.75;48.39;102510.84;4978944;28;20540;-71
2023/04/05 03:23:32;;;;;;;4.68;1.70;;;;;;;-1.68;48.26;102505.13;4994375;28;20494;-72
2023/04/05 03:25:59;;;;;;;6.22;2.00;;;;;;;-1.80;48.38;102510.69;4972085;28;20025;-73
2023/04/05 03:28:31;;;;;;;3.92;1.40;;;;;;;-1.83;48.42;102514.81;4958491;28;20038;-70
2023/04/05 03:31:00;;;;;;;4.90;2.03;;;;;;;-1.95;48.51;102504.09;4977232;28;20116;-70
2023/04/05 03:33:26;;;;;;;9.05;2.08;;;;;;;-1.93;48.56;102503.34;4982048;28;20045;-72
2023/04/05 03:35:51;;;;;;;5.25;2.03;;;;;;;-1.93;48.79;102507.56;4981221;28;20549;-73
2023/04/05 03:38:17;;;;;;;5.68;2.40;;;;;;;-1.97;48.58;102509.16;4959440;28;20767;-74
2023/04/05 03:41:05;;;;;;;5.07;2.08;;;;;;;-1.93;48.82;102499.88;4978344;28;20034;-69
2023/04/05 03:43:31;;;;;;;3.88;1.50;;;;;;;-1.86;48.52;102496.75;4977473;28;20057;-69
2023/04/05 03:45:57;;;;;;;3.83;1.42;;;;;;;-1.87;48.42;102501.00;4992542;28;20550;-69
2023/04/05 03:48:25;;;;;;;3.05;1.58;;;;;;;-1.89;48.30;102500.09;4991476;28;20037;-69
2023/04/05 03:50:51;;;;;;;5.03;2.13;;;;;;;-1.89;48.59;102506.88;4992178;28;20034;-69
2023/04/05 03:53:19;;;;;;;6.63;2.88;;;;;;;-1.90;48.61;102508.56;4968864;28;20038;-70
2023/04/05 03:55:49;;;;;;;6.97;2.05;;;;;;;-1.82;48.62;102508.88;4979853;28;20042;-70
2023/04/05 03:58:16;;;;;;;6.22;2.10;;;;;;;-1.80;48.67;102508.13;4989449;28;20074;-67
2023/04/05 04:00:42;;;;;;;4.82;2.28;;;;;;;-1.76;48.77;102508.22;4977674;28;20188;-71
2023/04/05 04:03:13;;;;;;;4.63;3.55;;;;;;;-1.69;49.31;102505.94;4977802;28;20084;-74
2023/04/05 04:05:43;;;;;;;5.47;2.50;;;;;;;-1.68;49.21;102501.69;4977040;28;20176;-73
2023/04/05 04:08:09;;;;;;;8.60;2.40;;;;;;;-1.64;49.25;102503.56;4992624;28;20034;-71
2023/04/05 04:10:35;;;;;;;6.32;3.10;;;;;;;-1.63;49.58;102505.28;4976940;28;20034;-72
2023/04/05 04:13:05;;;;;;;9.40;3.60;;;;;;;-1.61;49.45;102498.53;4976281;28;20284;-71
2023/04/05 04:15:32;;;;;;;5.97;2.65;;;;;;;-1.53;49.51;102497.13;4976667;28;20371;-71
2023/04/05 04:18:27;;;;;;;5.55;3.05;;;;;;;-1.56;49.81;102499.56;4971578;28;20042;-68
2023/04/05 04:21:06;;;;;;;5.47;2.47;;;;;;;-1.47;49.48;102497.31;4978284;28;20042;-70
2023/04/05 04:23:48;;;;;;;6.95;3.78;;;;;;;-1.51;49.57;102495.50;4991931;28;20527;-69
2023/04/05 04:26:40;;;;;;;7.18;3.67;;;;;;;-1.43;49.36;102506.03;4979349;28;20041;-69
2023/04/05 04:29:30;;;;;;;5.38;2.75;;;;;;;-1.51;49.22;102504.84;4968370;28;20045;-70
2023/04/05 04:32:25;;;;;;;9.65;3.38;;;;;;;-1.55;49.24;102501.34;4973600;28;20041;-69
2023/04/05 04:35:17;;;;;;;5.43;3.05;;;;;;;-1.65;49.33;102507.78;4975189;28;20647;-70
2023/04/05 04:37:58;;;;;;;7.63;3.17;;;;;;;-1.66;49.18;102493.25;4959452;28;20757;-70
2023/04/05 04:40:52;;;;;;;6.50;3.38;;;;;;;-1.75;49.19;102492.03;4994704;28;20045;-73
2023/04/05 04:43:28;;;;;;;5.80;3.30;;;;;;;-1.57;49.26;102495.28;4958784;28;20100;-70
2023/04/05 04:46:13;;;;;;;12.88;3.55;;;;;;;-1.60;49.32;102497.69;4977099;28;20612;-71
2023/04/05 04:48:58;;;;;;;4.60;2.92;;;;;;;-1.74;49.35;102499.75;4967999;28;20053;-75
2023/04/05 04:51:29;;;;;;;7.63;2.88;;;;;;;-1.75;49.24;102500.59;4993874;28;20033;-70
2023/04/05 04:53:55;;;;;;;7.07;3.53;;;;;;;-1.76;49.17;102492.84;4976595;28;20038;-72
2023/04/05 04:56:20;;;;;;;7.18;4.10;;;;;;;-1.81;49.38;102495.22;4972263;28;20039;-71
2023/04/05 04:58:48;;;;;;;7.63;3.80;;;;;;;-1.83;49.63;102496.88;4983977;28;20084;-68
2023/04/05 05:01:14;;;;;;;9.50;4.03;;;;;;;-1.77;49.20;102499.66;4974271;28;20221;-70
2023/04/05 05:03:41;;;;;;;8.10;3.58;;;;;;;-1.80;49.27;102491.84;4977173;28;20053;-69
2023/04/05 05:06:07;;;;;;;5.65;3.65;;;;;;;-1.83;49.42;102494.31;4991478;28;20775;-69
2023/04/05 05:08:36;;;;;;;8.32;4.38;;;;;;;-1.76;49.60;102497.97;4954170;28;21814;-68
2023/04/05 05:11:05;;;;;;;7.00;4.25;;;;;;;-1.64;49.62;102499.31;4977852;28;20038;-71
2023/04/05 05:13:30;;;;;;;6.95;4.47;;;;;;;-1.57;49.30;102494.41;4989955;28;20066;-72
2023/04/05 05:15:56;;;;;;;8.50;3.88;;;;;;;-1.58;49.43;102493.50;4975354;28;20117;-70
2023/04/05 05:18:24;;;;;;;9.68;3.45;;;;;;;-1.49;49.30;102496.41;4973394;28;20479;-72
2023/04/05 05:20:50;;;;;;;6.60;4.45;;;;;;;-1.46;49.08;102493.09;4980263;28;20507;-69
2023/04/05 05:23:16;;;;;;;8.35;5.03;;;;;;;-1.39;49.34;102498.50;4979162;28;20041;-70
2023/04/05 05:25:42;;;;;;;7.50;4.32;;;;;;;-1.26;49.12;102496.38;4979847;28;20037;-73
2023/04/05 05:28:07;;;;;;;9.02;4.78;;;;;;;-1.17;49.09;102494.13;4978106;28;20034;-71
2023/04/05 05:30:33;;;;;;;6.05;4.20;;;;;;;-1.15;48.91;102495.06;4973314;28;20064;-71
2023/04/05 05:32:58;;;;;;;6.10;4.32;;;;;;;-1.12;48.94;102495.16;4975273;28;20410;-68
2023/04/05 05:35:24;;;;;;;9.57;5.25;;;;;;;-1.09;48.62;102500.38;4978382;28;20276;-70
2023/04/05 05:37:51;;;;;;;10.88;4.68;;;;;;;-1.03;48.59;102503.19;4975307;28;20085;-72
2023/04/05 05:40:17;;;;;;;11.40;4.55;;;;;;;-0.98;48.63;102499.06;4993641;28;20069;-72
2023/04/05 05:42:42;;;;;;;9.07;5.38;;;;;;;-0.92;48.70;102501.00;4979826;28;20693;-67
2023/04/05 05:45:09;;;;;;;12.63;5.18;;;;;;;-0.87;48.57;102496.00;4994831;28;20447;-71
2023/04/05 05:47:35;;;;;;;13.13;5.88;;;;;;;-0.43;48.39;102491.47;4993146;28;20752;-69
2023/04/05 05:50:02;;;;;;;14.68;7.20;;;;;;;0.50;47.04;102493.34;4978766;28;20032;-70
2023/04/05 05:52:28;;;;;;;8.18;4.97;;;;;;;1.31;46.01;102492.91;4973725;28;20046;-72
2023/04/05 05:54:54;;;;;;;11.77;6.13;;;;;;;1.93;44.23;102486.66;4981632;28;20700;-72
2023/04/05 05:57:20;;;;;;;9.80;5.53;;;;;;;2.71;43.91;102483.06;4977670;28;20636;-71
2023/04/05 05:59:45;;;;;;;10.55;5.70;;;;;;;3.75;41.86;102480.47;4980062;28;20099;-71
2023/04/05 06:02:11;;;;;;;9.75;5.53;;;;;;;5.30;38.94;102470.97;4979426;28;20136;-67
2023/04/05 06:04:37;;;;;;;11.98;6.07;;;;;;;7.38;35.97;102478.63;4977625;28;20042;-69
2023/04/05 06:07:03;;;;;;;8.85;5.05;;;;;;;9.27;32.40;102469.91;4993551;28;20048;-68
2023/04/05 06:09:29;;;;;;;8.02;4.68;;;;;;;10.71;29.49;102469.13;4974360;28;20037;-67
2023/04/05 06:11:55;;;;;;;8.68;4.90;;;;;;;12.06;27.19;102464.97;4976126;28;22932;-68
2023/04/05 06:14:21;;;;;;;6.95;5.32;;;;;;;12.41;25.74;102463.34;4978020;28;20906;-67
2023/04/05 06:16:47;;;;;;;12.40;5.88;;;;;;;12.26;25.74;102458.44;4976810;28;21042;-69
2023/04/05 06:19:12;;;;;;;10.80;5.65;;;;;;;12.02;26.59;102462.44;4978931;28;20030;-69
2023/04/05 06:21:38;;;;;;;11.98;4.97;;;;;;;11.93;26.33;102460.88;4976646;28;20818;-69
2023/04/05 06:24:04;;;;;;;11.90;5.75;;;;;;;11.84;25.37;102467.19;4979564;28;20802;-67
2023/04/05 06:26:30;;;;;;;6.80;4.45;;;;;;;11.67;26.00;102464.84;4977496;28;20038;-69
2023/04/05 06:28:56;;;;;;;7.45;5.18;;;;;;;12.38;25.58;102460.81;4974864;28;20616;-68
2023/04/05 06:31:32;;;;;;;10.38;4.60;;;;;;;13.46;23.81;102455.56;4977202;28;20116;-71
2023/04/05 06:33:58;;;;;;;6.63;4.45;;;;;;;13.15;23.92;102452.88;4978429;28;20394;-71
2023/04/05 06:36:25;;;;;;;7.35;5.30;;;;;;;13.41;23.75;102447.81;4968074;28;20044;-70
2023/04/05 06:38:51;;;;;;;8.52;4.55;;;;;;;13.35;23.79;102452.34;4978154;28;20121;-74
2023/04/05 06:41:16;;;;;;;8.90;4.60;;;;;;;13.35;24.15;102447.97;4959367;28;20574;-70
2023/04/05 06:43:42;;;;;;;10.02;4.10;;;;;;;13.49;23.37;102452.84;4992603;28;20044;-70
2023/04/05 06:46:10;;;;;;;7.20;3.97;;;;;;;13.76;23.01;102459.13;4978359;28;20045;-70
2023/04/05 06:48:36;;;;;;;7.78;4.85;;;;;;;13.99;22.34;102458.47;4964632;28;21243;-69
2023/04/05 06:51:02;;;;;;;7.10;4.25;;;;;;;14.54;21.73;102458.56;4980668;28;20223;-71
2023/04/05 06:53:28;;;;;;;6.68;3.67;;;;;;;14.57;21.11;102463.75;4991794;28;20056;-71
2023/04/05 06:55:55;;;;;;;7.40;4.90;;;;;;;15.04;21.11;102458.72;4975721;28;20033;-71
2023/04/05 06:58:22;;;;;;;6.82;4.10;;;;;;;15.18;21.06;102456.44;4950869;28;20088;-69
2023/04/05 07:00:48;;;;;;;8.23;4.18;;;;;;;16.35;20.07;102446.94;4959821;28;20049;-70
2023/04/05 07:03:13;;;;;;;10.00;4.38;;;;;;;16.65;20.49;102451.91;4978716;28;20042;-70
2023/04/05 07:05:39;;;;;;;7.30;3.90;;;;;;;16.00;19.26;102449.16;4976017;28;20034;-71
2023/04/05 07:08:05;;;;;;;5.75;4.03;;;;;;;16.09;19.43;102444.47;4975856;28;20797;-69
2023/04/05 07:10:30;;;;;;;7.90;4.32;;;;;;;16.16;19.31;102446.78;4976953;28;20549;-70
2023/04/05 07:12:56;;;;;;;7.10;4.10;;;;;;;15.46;20.33;102450.25;4979685;28;20038;-71
2023/04/05 07:15:21;;;;;;;6.82;4.18;;;;;;;15.39;19.63;102443.47;4977100;28;20124;-70
2023/04/05 07:17:47;;;;;;;6.05;2.95;;;;;;;15.00;18.50;102446.56;4980498;28;20533;-71
2023/04/05 07:20:13;;;;;;;5.88;3.83;;;;;;;14.71;20.30;102445.75;4975236;28;20629;-70
2023/04/05 07:22:38;;;;;;;8.65;4.30;;;;;;;14.72;19.36;102442.22;4975596;28;20423;-71
2023/04/05 07:25:04;;;;;;;5.68;3.15;;;;;;;14.48;19.73;102449.13;4979343;28;20052;-71
2023/04/05 07:27:30;;;;;;;5.85;3.35;;;;;;;14.97;19.44;102451.94;4974755;28;20042;-71
2023/04/05 07:29:56;;;;;;;6.20;3.33;;;;;;;15.89;18.59;102443.41;4960863;28;20180;-70
2023/04/05 07:32:21;;;;;;;3.25;2.08;;;;;;;16.40;18.17;102444.13;4973858;28;20072;-69
2023/04/05 07:34:47;;;;;;;4.95;2.30;;;;;;;17.30;17.29;102444.78;4992606;28;20041;-69
2023/04/05 07:37:12;;;;;;;6.35;2.80;;;;;;;17.76;16.46;102441.88;4977248;28;20042;-70
2023/04/05 07:39:38;;;;;;;3.50;2.42;;;;;;;18.81;15.76;102437.75;4989020;28;20040;-71
2023/04/05 07:42:04;;;;;;;2.47;2.17;;;;;;;17.83;16.01;102435.41;4978146;28;20046;-70
2023/04/05 07:44:30;;;;;;;3.45;1.80;;;;;;;17.98;16.36;102439.09;4989707;28;20038;-71
2023/04/05 07:46:55;;;;;;;6.75;2.63;;;;;;;17.29;16.18;102435.16;4973643;28;20026;-71
2023/04/05 07:49:26;;;;;;;5.78;2.58;;;;;;;17.12;15.95;102438.50;4975107;28;20570;-70
2023/04/05 07:51:57;;;;;;;4.97;1.67;;;;;;;15.98;16.01;102436.94;4977584;28;20406;-72
2023/04/05 07:54:23;;;;;;;5.25;2.03;;;;;;;15.97;17.15;102446.63;4973538;28;20946;-69
2023/04/05 07:56:49;;;;;;;7.47;2.97;;;;;;;16.82;16.29;102436.25;4976769;28;20061;-70
2023/04/05 07:59:15;;;;;;;4.70;1.80;;;;;;;16.99;16.18;102432.03;4976004;28;20041;-69
2023/04/05 08:01:41;;;;;;;3.20;1.63;;;;;;;17.30;15.95;102436.00;4992199;28;20267;-71
2023/04/05 08:04:06;;;;;;;2.88;1.95;;;;;;;17.09;15.78;102438.66;4976966;28;20051;-70
2023/04/05 08:06:32;;;;;;;3.15;1.65;;;;;;;16.98;15.43;102435.63;4975969;28;20566;-71
2023/04/05 08:08:57;;;;;;;4.00;1.55;;;;;;;16.99;14.47;102432.03;4974638;28;20521;-71
2023/04/05 08:11:23;;;;;;;4.43;1.38;;;;;;;16.67;14.91;102433.38;4990551;28;20033;-70
2023/04/05 08:13:48;;;;;;;3.85;1.13;;;;;;;16.11;14.57;102443.47;4977472;28;20093;-70
2023/04/05 08:16:14;;;;;;;2.20;0.98;;;;;;;16.13;14.48;102438.13;4978318;28;20041;-71
2023/04/05 08:18:39;;;;;;;3.33;1.10;;;;;;;16.27;15.58;102443.75;4976442;28;20045;-69
2023/04/05 08:21:05;;;;;;;5.95;1.58;;;;;;;16.11;15.50;102442.63;4980572;28;20025;-70
2023/04/05 08:23:31;;;;;;;3.97;1.40;;;;;;;16.42;15.81;102427.28;4976249;28;20038;-70
2023/04/05 08:25:57;;;;;;;2.78;1.35;;;;;;;16.98;15.54;102431.19;4978190;28;20558;-69
2023/04/05 08:28:22;;;;;;;3.95;1.55;;;;;;;16.48;14.49;102431.44;4976824;28;20030;-70
2023/04/05 08:30:53;;;;;;;4.07;1.15;;;;;;;16.62;15.01;102430.88;4972358;28;20541;-70
2023/04/05 08:33:18;;;;;;;3.97;1.92;;;;;;;17.24;14.97;102427.38;4973135;28;20038;-70
2023/04/05 08:35:43;;;;;;;2.70;1.30;;;;;;;17.38;14.05;102428.56;4975040;28;20045;-69
2023/04/05 08:38:11;;;;;;;3.38;1.23;;;;;;;16.89;14.92;102425.41;4971403;28;20038;-69
2023/04/05 08:40:41;;;;;;;3.00;0.77;;;;;;;16.67;14.67;102415.75;4968501;28;20149;-70
2023/04/05 08:43:12;;;;;;;1.53;0.67;;;;;;;15.87;14.47;102425.94;4976723;28;20416;-72
2023/04/05 08:45:46;;;;;;;2.63;1.20;;;;;;;14.65;15.57;102438.03;4975155;28;20509;-69
2023/04/05 08:48:12;;;;;;;1.83;1.15;;;;;;;14.72;16.08;102430.81;4973779;28;20820;-69
2023/04/05 08:50:38;;;;;;;4.28;0.93;;;;;;;15.01;15.86;102427.19;4976163;28;20034;-70
2023/04/05 08:53:03;;;;;;;2.83;1.15;;;;;;;14.02;16.33;102429.44;4969206;28;20042;-70
2023/04/05 08:55:29;;;;;;;4.22;0.93;;;;;;;14.33;15.60;102423.25;4994986;28;20034;-71
2023/04/05 08:57:58;;;;;;;4.10;0.73;;;;;;;13.96;15.58;102418.25;4980077;28;20200;-69
2023/04/05 09:00:26;;;;;;;2.60;1.25;;;;;;;13.25;16.03;102425.47;4994721;28;20046;-71
2023/04/05 09:02:56;;;;;;;3.63;1.27;;;;;;;11.67;17.56;102424.72;4994446;28;20048;-71
2023/04/05 09:05:23;;;;;;;1.52;0.75;;;;;;;11.84;17.51;102422.66;4971332;28;20525;-70
2023/04/05 09:07:49;;;;;;;7.40;1.30;;;;;;;11.76;18.58;102426.28;4977306;28;20038;-72
2023/04/05 09:10:20;;;;;;;3.33;1.60;;;;;;;11.30;18.51;102417.56;4994876;28;20037;-69
2023/04/05 09:12:46;;;;;;;4.10;1.33;;;;;;;11.28;18.96;102421.09;4978226;28;20046;-71
2023/04/05 09:15:13;;;;;;;3.63;0.95;;;;;;;10.82;18.56;102420.16;4979457;28;20502;-69
2023/04/05 09:17:41;;;;;;;4.72;0.95;;;;;;;10.80;19.15;102422.75;4977121;28;20614;-69
2023/04/05 09:20:06;;;;;;;2.28;1.00;;;;;;;11.13;19.86;102422.22;4978167;28;20029;-69
2023/04/05 09:22:42;;;;;;;5.00;0.95;;;;;;;12.11;17.96;102422.97;4978965;28;20170;-69
2023/04/05 09:25:08;;;;;;;4.50;0.95;;;;;;;12.21;17.60;102421.00;4959249;28;20466;-69
2023/04/05 09:27:33;;;;;;;2.75;1.00;;;;;;;12.12;19.06;102414.19;4977548;28;20128;-70
2023/04/05 09:29:59;;;;;;;4.40;1.20;;;;;;;12.21;18.54;102421.84;4976280;28;20042;-70
2023/04/05 09:32:27;;;;;;;2.95;0.80;;;;;;;11.70;18.35;102414.16;4995447;28;20050;-69
2023/04/05 09:34:52;;;;;;;2.70;1.13;;;;;;;11.02;18.73;102410.22;4978538;28;20100;-69
2023/04/05 09:37:22;;;;;;;5.82;0.88;;;;;;;11.73;18.60;102418.47;4972219;28;20065;-71
2023/04/05 09:39:50;;;;;;;2.47;1.00;;;;;;;12.24;17.62;102413.91;4979270;28;20180;-69
2023/04/05 09:42:18;;;;;;;3.60;1.60;;;;;;;11.81;18.31;102419.22;4978630;28;20471;-68
2023/04/05 09:45:03;;;;;;;4.55;1.17;;;;;;;12.27;17.65;102413.00;4977719;28;20092;-72
2023/04/05 09:47:34;;;;;;;3.67;0.90;;;;;;;12.01;17.68;102417.03;4979217;28;21538;-70
2023/04/05 09:50:17;;;;;;;6.38;0.82;;;;;;;11.18;18.65;102407.31;4977226;28;20554;-70
2023/04/05 09:52:43;;;;;;;3.67;1.15;;;;;;;11.44;18.84;102414.66;4972545;28;20157;-70
2023/04/05 09:55:09;;;;;;;2.78;0.98;;;;;;;11.40;18.29;102418.25;4984373;28;20111;-69
2023/04/05 09:57:39;;;;;;;3.75;0.73;;;;;;;11.94;18.14;102406.75;4979835;28;20203;-71
2023/04/05 10:00:15;;;;;;;4.43;0.90;;;;;;;12.42;18.48;102409.13;4980305;28;20044;-70
2023/04/05 10:02:41;;;;;;;5.25;2.08;;;;;;;11.92;17.89;102403.28;4978611;28;20034;-69
2023/04/05 10:05:11;;;;;;;1.77;1.00;;;;;;;12.10;17.74;102405.50;4979647;28;20184;-69
2023/04/05 10:07:37;;;;;;;3.88;1.20;;;;;;;12.41;18.80;102400.41;4976776;28;20250;-71
2023/04/05 10:10:03;;;;;;;2.65;0.77;;;;;;;12.09;17.91;102395.94;4995464;28;20117;-69
2023/04/05 10:12:31;;;;;;;2.58;0.82;;;;;;;10.97;18.09;102401.59;4978255;28;20149;-69
2023/04/05 10:14:58;;;;;;;2.58;1.00;;;;;;;11.47;18.77;102393.69;4977193;28;20058;-70
2023/04/05 10:17:30;;;;;;;3.22;0.85;;;;;;;11.75;18.53;102386.13;4978200;28;20057;-69
2023/04/05 10:20:16;;;;;;;2.28;0.85;;;;;;;11.42;18.15;102385.91;4976070;28;21151;-69
2023/04/05 10:23:03;;;;;;;2.55;1.23;;;;;;;10.76;18.56;102389.69;4978158;28;20554;-70
2023/04/05 10:25:37;;;;;;;3.15;0.98;;;;;;;11.43;18.90;102382.41;4973481;28;20033;-71
2023/04/05 10:28:09;;;;;;;2.55;1.42;;;;;;;12.28;17.04;102388.50;4979124;28;20125;-70
2023/04/05 10:30:39;;;;;;;1.45;1.02;;;;;;;12.38;17.22;102378.63;4979146;28;20408;-69
2023/04/05 10:33:23;;;;;;;1.98;0.80;;;;;;;12.32;17.74;102373.56;4957231;28;20184;-70
2023/04/05 10:35:51;;;;;;;3.92;0.77;;;;;;;12.06;16.63;102377.63;4978438;28;20037;-69
2023/04/05 10:38:26;;;;;;;1.88;0.50;;;;;;;11.70;17.12;102369.63;4976509;28;20041;-70
2023/04/05 10:41:15;;;;;;;2.53;1.10;;;;;;;10.63;19.37;102383.78;4978604;28;20048;-70
2023/04/05 10:43:41;;;;;;;1.98;0.60;;;;;;;10.37;19.29;102370.25;4976549;28;20155;-69
2023/04/05 10:46:09;;;;;;;2.67;0.90;;;;;;;10.35;18.21;102372.06;4980654;28;20030;-71
2023/04/05 10:48:54;;;;;;;2.53;1.30;;;;;;;10.83;18.15;102370.41;4976033;28;20061;-73
2023/04/05 10:51:23;;;;;;;4.30;0.82;;;;;;;11.12;17.47;102365.56;4978636;28;21928;-70
2023/04/05 10:53:50;;;;;;;3.75;1.00;;;;;;;11.93;17.47;102360.47;4969893;28;20046;-71
2023/04/05 10:56:16;;;;;;;1.42;0.70;;;;;;;12.29;17.95;102349.16;4973528;28;20038;-71
2023/04/05 10:58:43;;;;;;;2.35;0.60;;;;;;;12.37;17.58;102355.97;4974401;28;20145;-71
2023/04/05 11:01:09;;;;;;;2.60;0.70;;;;;;;11.75;17.18;102352.06;4995437;28;20124;-71
2023/04/05 11:03:43;;;;;;;3.15;1.67;;;;;;;11.63;17.66;102357.56;4976786;28;20042;-71
2023/04/05 11:06:20;;;;;;;4.30;0.65;;;;;;;12.42;16.67;102349.72;4980166;28;20069;-71
2023/04/05 11:08:47;;;;;;;3.65;0.70;;;;;;;11.92;17.51;102349.13;4973961;28;20053;-70
2023/04/05 11:11:17;;;;;;;2.22;0.90;;;;;;;11.43;18.38;102344.88;4977390;28;20033;-69
2023/04/05 11:13:54;;;;;;;2.58;1.02;;;;;;;11.75;16.94;102338.97;4973667;28;20045;-70
2023/04/05 11:16:21;;;;;;;1.20;0.63;;;;;;;11.86;17.67;102344.88;4969690;28;20645;-73
2023/04/05 11:18:49;;;;;;;3.40;0.52;;;;;;;12.52;16.38;102339.84;4988042;28;20069;-70
2023/04/05 11:21:25;;;;;;;1.30;0.70;;;;;;;12.52;16.93;102334.59;4977545;28;20026;-70
2023/04/05 11:24:05;;;;;;;4.22;0.70;;;;;;;13.03;16.00;102330.69;4969496;28;20042;-71
2023/04/05 11:26:32;;;;;;;1.65;0.65;;;;;;;12.62;16.89;102333.44;4974507;28;20342;-70
2023/04/05 11:28:58;;;;;;;3.30;0.85;;;;;;;12.10;16.22;102337.34;4990448;28;20485;-70
2023/04/05 11:31:25;;;;;;;4.40;0.75;;;;;;;11.64;18.72;102328.75;4976000;28;20068;-71